Time;durP1;ratioP1;P1;durP2;ratioP2;P2;SDS_P1;SDS_P2;PMS_P1;PMS_P2;Temp;Humidity;BMP_temperature;BMP_pressure;BME280_temperature;BME280_humidity;BME280_pressure;Samples;Min_cycle;Max_cycle;Signal;HPM_P1;HPM_P2
2024/03/11 00:00:47;;;;;;;0.50;0.30;;;;;;;4.75;100.00;91427.47;2113284;28;20491;-80
2024/03/11 00:01:49;;;;;;;0.40;0.40;;;;;;;4.80;100.00;91421.66;2108346;28;20028;-81
2024/03/11 00:02:50;;;;;;;0.30;0.30;;;;;;;4.93;100.00;91424.34;2112897;28;20022;-82
2024/03/11 00:03:53;;;;;;;0.40;0.40;;;;;;;4.75;100.00;91427.47;2091630;28;20036;-84
2024/03/11 00:04:54;;;;;;;0.40;0.40;;;;;;;4.70;100.00;91424.63;2094875;28;20024;-81
2024/03/11 00:05:55;;;;;;;0.30;0.30;;;;;;;4.77;100.00;91424.41;2108970;28;20075;-80
2024/03/11 00:06:57;;;;;;;0.63;0.35;;;;;;;4.69;100.00;91431.03;2095480;28;20029;-83
2024/03/11 00:07:58;;;;;;;0.40;0.40;;;;;;;4.75;100.00;91438.06;2094152;28;20020;-82
2024/03/11 00:08:59;;;;;;;0.35;0.35;;;;;;;4.65;100.00;91431.13;2103233;28;20036;-81
2024/03/11 00:10:00;;;;;;;0.30;0.30;;;;;;;4.61;100.00;91437.69;2101940;28;20024;-81
2024/03/11 00:11:01;;;;;;;0.20;0.20;;;;;;;4.71;100.00;91434.03;2113419;28;20558;-80
2024/03/11 00:12:03;;;;;;;0.80;0.43;;;;;;;4.47;100.00;91436.91;2107130;28;20036;-80
2024/03/11 00:13:05;;;;;;;0.30;0.30;;;;;;;4.47;100.00;91436.91;2101441;28;20057;-82
2024/03/11 00:14:08;;;;;;;0.52;0.40;;;;;;;4.57;100.00;91437.06;2100586;28;20028;-82
2024/03/11 00:15:12;;;;;;;0.30;0.30;;;;;;;4.50;100.00;91441.38;2094022;28;20094;-83
2024/03/11 00:16:13;;;;;;;0.38;0.22;;;;;;;4.58;100.00;91443.84;2082295;28;20075;-80
2024/03/11 00:17:14;;;;;;;0.30;0.30;;;;;;;4.36;100.00;91451.59;2089811;28;20036;-83
2024/03/11 00:18:16;;;;;;;0.40;0.40;;;;;;;4.40;100.00;91446.94;2106311;28;20024;-82
2024/03/11 00:19:17;;;;;;;1.02;0.40;;;;;;;4.39;100.00;91440.16;2106344;28;20016;-81
2024/03/11 00:20:20;;;;;;;0.40;0.30;;;;;;;4.33;100.00;91450.50;2100525;28;20033;-82
2024/03/11 00:21:21;;;;;;;0.30;0.30;;;;;;;4.38;100.00;91447.34;2106820;28;20114;-82
2024/03/11 00:22:22;;;;;;;0.40;0.30;;;;;;;4.44;100.00;91456.28;2108004;28;20020;-81
2024/03/11 00:23:23;;;;;;;0.30;0.30;;;;;;;4.44;100.00;91445.69;2112689;28;20031;-81
2024/03/11 00:24:24;;;;;;;0.30;0.30;;;;;;;4.42;100.00;91449.91;2106866;28;20024;-81
2024/03/11 00:25:26;;;;;;;1.33;0.30;;;;;;;4.02;100.00;91450.88;2105986;28;20028;-80
2024/03/11 00:26:27;;;;;;;0.30;0.30;;;;;;;4.18;100.00;91452.03;2106080;28;20036;-81
2024/03/11 00:27:28;;;;;;;0.95;0.30;;;;;;;4.04;100.00;91453.88;2104380;28;20036;-82
2024/03/11 00:28:29;;;;;;;0.30;0.30;;;;;;;4.24;100.00;91459.03;2100188;28;20056;-82
2024/03/11 00:29:30;;;;;;;0.30;0.30;;;;;;;4.26;100.00;91459.38;2111083;28;20463;-82
2024/03/11 00:30:31;;;;;;;0.50;0.50;;;;;;;4.35;100.00;91461.41;2104020;28;20115;-80
2024/03/11 00:31:34;;;;;;;1.63;0.30;;;;;;;4.36;100.00;91462.91;2113940;28;20494;-81
2024/03/11 00:32:36;;;;;;;0.30;0.30;;;;;;;4.42;100.00;91460.47;2113941;28;20042;-80
2024/03/11 00:33:37;;;;;;;0.68;0.32;;;;;;;4.41;100.00;91456.34;2100746;28;20024;-80
2024/03/11 00:34:41;;;;;;;0.45;0.30;;;;;;;4.50;100.00;91465.19;2113988;28;20035;-83
2024/03/11 00:35:43;;;;;;;0.40;0.40;;;;;;;4.50;100.00;91454.59;2105732;28;20028;-80
2024/03/11 00:36:48;;;;;;;0.40;0.40;;;;;;;4.45;100.00;91464.94;2097136;28;20035;-82
2024/03/11 00:37:49;;;;;;;0.40;0.40;;;;;;;4.48;100.00;91462.22;2093046;28;20385;-81
2024/03/11 00:38:51;;;;;;;0.50;0.50;;;;;;;4.43;100.00;91456.66;2102806;28;20032;-82
2024/03/11 00:39:53;;;;;;;0.57;0.40;;;;;;;4.58;100.00;91462.34;2114427;28;20378;-81
2024/03/11 00:40:55;;;;;;;0.30;0.30;;;;;;;4.59;100.00;91464.56;2106088;28;20035;-81
2024/03/11 00:41:56;;;;;;;0.40;0.40;;;;;;;4.35;100.00;91473.91;2098212;28;20178;-80
2024/03/11 00:42:57;;;;;;;0.30;0.30;;;;;;;4.37;100.00;91472.31;2114542;28;20019;-80
2024/03/11 00:43:58;;;;;;;1.30;0.40;;;;;;;4.37;100.00;91464.38;2111042;28;20142;-81
2024/03/11 00:44:59;;;;;;;0.50;0.50;;;;;;;4.18;100.00;91473.19;2089278;28;20020;-83
2024/03/11 00:46:01;;;;;;;0.40;0.40;;;;;;;4.26;100.00;91469.94;2097356;28;20024;-81
2024/03/11 00:47:05;;;;;;;0.40;0.30;;;;;;;4.21;100.00;91472.34;2109281;28;20023;-81
2024/03/11 00:48:10;;;;;;;1.23;0.40;;;;;;;4.16;100.00;91468.28;2090070;28;20118;-82
2024/03/11 00:49:11;;;;;;;0.85;0.45;;;;;;;4.11;100.00;91468.06;2098893;28;20608;-81
2024/03/11 00:50:13;;;;;;;0.30;0.30;;;;;;;4.09;100.00;91471.13;2097788;28;20040;-83
2024/03/11 00:51:14;;;;;;;0.30;0.30;;;;;;;4.09;100.00;91457.16;2098304;28;20020;-80
2024/03/11 00:52:15;;;;;;;0.52;0.30;;;;;;;3.99;100.00;91466.81;2109963;28;20459;-83
2024/03/11 00:53:16;;;;;;;0.30;0.30;;;;;;;3.89;100.00;91468.56;2106156;28;20130;-81
2024/03/11 00:54:18;;;;;;;0.40;0.40;;;;;;;3.70;100.00;91466.75;2111444;28;20495;-80
2024/03/11 00:55:19;;;;;;;0.30;0.30;;;;;;;4.02;100.00;91466.00;2106190;28;20373;-81
2024/03/11 00:56:20;;;;;;;0.40;0.40;;;;;;;3.95;100.00;91466.94;2097408;28;20035;-82
2024/03/11 00:57:21;;;;;;;0.40;0.40;;;;;;;3.89;100.00;91465.91;2105975;28;20023;-80
2024/03/11 00:58:23;;;;;;;0.70;0.40;;;;;;;3.70;100.00;91472.03;2111896;28;20104;-80
2024/03/11 00:59:24;;;;;;;0.30;0.30;;;;;;;3.71;100.00;91478.81;2110642;28;20452;-82
2024/03/11 01:00:26;;;;;;;0.30;0.30;;;;;;;3.81;100.00;91477.06;2103625;28;20032;-82
2024/03/11 01:01:27;;;;;;;0.30;0.30;;;;;;;3.81;100.00;91475.16;2097500;28;20023;-83
2024/03/11 01:02:28;;;;;;;0.30;0.30;;;;;;;3.75;100.00;91469.63;2101446;28;20024;-80
2024/03/11 01:03:29;;;;;;;0.22;0.22;;;;;;;3.71;100.00;91476.91;2102290;28;20024;-82
2024/03/11 01:04:30;;;;;;;0.30;0.30;;;;;;;3.45;100.00;91483.88;2106025;28;20020;-79
2024/03/11 01:05:32;;;;;;;0.30;0.30;;;;;;;3.55;100.00;91487.44;2113011;28;20515;-81
2024/03/11 01:06:32;;;;;;;0.30;0.30;;;;;;;3.70;100.00;91483.34;2106564;28;20461;-80
2024/03/11 01:07:35;;;;;;;0.28;0.28;;;;;;;3.71;100.00;91482.19;2109359;28;20035;-81
2024/03/11 01:08:38;;;;;;;0.52;0.52;;;;;;;3.75;100.00;91485.50;2098284;28;20036;-81
2024/03/11 01:09:40;;;;;;;0.20;0.20;;;;;;;3.56;100.00;91488.19;2105888;28;20413;-81
2024/03/11 01:10:40;;;;;;;0.30;0.30;;;;;;;3.58;100.00;91485.91;2105528;28;20023;-82
2024/03/11 01:11:41;;;;;;;0.30;0.30;;;;;;;3.47;100.00;91484.25;2105817;28;20110;-81
2024/03/11 01:12:43;;;;;;;0.30;0.30;;;;;;;3.54;100.00;91489.34;2101147;28;20079;-81
2024/03/11 01:13:45;;;;;;;0.30;0.30;;;;;;;3.46;100.00;91484.63;2098152;28;20020;-81
2024/03/11 01:14:46;;;;;;;0.52;0.22;;;;;;;3.50;100.00;91486.03;2100886;28;20035;-80
2024/03/11 01:15:49;;;;;;;0.40;0.40;;;;;;;3.43;100.00;91483.56;2106315;28;20441;-83
2024/03/11 01:16:51;;;;;;;0.32;0.32;;;;;;;3.46;100.00;91489.91;2097366;28;20027;-81
2024/03/11 01:17:52;;;;;;;0.30;0.30;;;;;;;3.43;100.00;91491.50;2082927;28;20052;-81
2024/03/11 01:18:53;;;;;;;0.40;0.40;;;;;;;3.51;100.00;91487.56;2105965;28;20062;-81
2024/03/11 01:19:54;;;;;;;0.35;0.35;;;;;;;3.38;100.00;91483.28;2107931;28;20024;-79
2024/03/11 01:20:55;;;;;;;0.63;0.30;;;;;;;3.35;100.00;91487.50;2097347;28;20028;-80
2024/03/11 01:21:58;;;;;;;0.38;0.38;;;;;;;3.40;100.00;91494.94;2100662;28;20134;-80
2024/03/11 01:22:59;;;;;;;0.40;0.40;;;;;;;3.36;100.00;91488.25;2092805;28;20071;-81
2024/03/11 01:24:00;;;;;;;0.40;0.40;;;;;;;3.31;100.00;91496.66;2095406;28;20365;-81
2024/03/11 01:25:00;;;;;;;0.95;0.32;;;;;;;3.31;100.00;91494.75;2101828;28;20099;-80
2024/03/11 01:26:02;;;;;;;0.40;0.40;;;;;;;3.39;100.00;91490.81;2108985;28;20027;-81
2024/03/11 01:27:10;;;;;;;0.70;0.40;;;;;;;3.40;100.00;91494.94;2114242;27;20065;-80
2024/03/11 01:28:11;;;;;;;0.30;0.30;;;;;;;3.38;100.00;91493.84;2105391;28;20023;-81
2024/03/11 01:29:12;;;;;;;0.30;0.30;;;;;;;3.30;100.00;91498.56;2097477;28;20469;-80
2024/03/11 01:30:14;;;;;;;0.40;0.40;;;;;;;3.23;100.00;91496.06;2100674;28;20016;-79
2024/03/11 01:31:15;;;;;;;0.40;0.40;;;;;;;3.13;100.00;91494.41;2116637;27;20415;-80
2024/03/11 01:32:16;;;;;;;0.40;0.40;;;;;;;3.10;100.00;91495.94;2121588;27;20050;-83
2024/03/11 01:33:18;;;;;;;0.45;0.40;;;;;;;3.05;100.00;91491.16;2117393;27;20081;-81
2024/03/11 01:34:22;;;;;;;0.30;0.30;;;;;;;3.16;100.00;91496.19;2110787;28;20031;-81
2024/03/11 01:35:23;;;;;;;0.32;0.32;;;;;;;3.15;100.00;91497.34;2105637;27;20035;-80
2024/03/11 01:36:24;;;;;;;0.30;0.30;;;;;;;2.92;100.00;91493.66;2112024;28;20024;-80
2024/03/11 01:37:25;;;;;;;0.30;0.30;;;;;;;2.93;100.00;91494.41;2119136;27;20038;-81
2024/03/11 01:38:26;;;;;;;0.40;0.40;;;;;;;2.93;100.00;91492.50;2117324;27;20014;-81
2024/03/11 01:39:42;;;;;;;0.30;0.30;;;;;;;2.86;100.00;91495.28;2105721;28;20055;-81
2024/03/11 01:40:43;;;;;;;0.30;0.30;;;;;;;2.90;100.00;91489.94;2103914;28;20083;-81
2024/03/11 01:41:45;;;;;;;0.40;0.40;;;;;;;2.67;100.00;91496.03;2105661;28;20054;-81
2024/03/11 01:42:46;;;;;;;0.30;0.30;;;;;;;2.78;100.00;91491.28;2105151;28;20414;-82
2024/03/11 01:43:47;;;;;;;0.45;0.40;;;;;;;2.64;100.00;91492.31;2110032;28;20075;-80
2024/03/11 01:44:50;;;;;;;0.30;0.30;;;;;;;2.73;100.00;91492.50;2108544;28;20067;-81
2024/03/11 01:45:51;;;;;;;0.65;0.40;;;;;;;2.73;100.00;91492.50;2105914;28;20032;-80
2024/03/11 01:46:54;;;;;;;0.32;0.32;;;;;;;2.59;100.00;91495.44;2107287;27;20020;-80
2024/03/11 01:47:55;;;;;;;0.30;0.30;;;;;;;2.55;100.00;91500.03;2117869;27;20035;-84
2024/03/11 01:48:56;;;;;;;0.30;0.30;;;;;;;2.48;100.00;91502.78;2111038;28;20028;-80
2024/03/11 01:50:01;;;;;;;0.32;0.32;;;;;;;2.54;100.00;91503.78;2100791;28;20031;-81
2024/03/11 01:51:04;;;;;;;0.40;0.40;;;;;;;2.64;100.00;91510.03;2117748;27;20031;-80
2024/03/11 01:52:07;;;;;;;0.43;0.43;;;;;;;2.61;100.00;91497.66;2108997;28;20031;-82
2024/03/11 01:53:09;;;;;;;0.30;0.30;;;;;;;2.64;100.00;91502.88;2101556;28;20016;-82
2024/03/11 01:54:12;;;;;;;0.40;0.40;;;;;;;2.75;100.00;91502.66;2109452;28;20511;-82
2024/03/11 01:55:14;;;;;;;0.40;0.40;;;;;;;2.74;100.00;91503.81;2114007;28;20480;-81
2024/03/11 01:56:15;;;;;;;0.60;0.40;;;;;;;2.69;100.00;91509.56;2105573;28;20024;-82
2024/03/11 01:57:17;;;;;;;0.85;0.50;;;;;;;2.70;100.00;91511.03;2102381;28;20020;-82
2024/03/11 01:58:20;;;;;;;0.40;0.40;;;;;;;2.78;100.00;91512.41;2113004;28;20019;-82
2024/03/11 01:59:23;;;;;;;0.98;0.45;;;;;;;2.64;100.00;91502.88;2104359;28;20050;-82
2024/03/11 02:00:24;;;;;;;0.50;0.50;;;;;;;2.61;100.00;91508.19;2106087;27;20047;-81
2024/03/11 02:01:26;;;;;;;0.40;0.40;;;;;;;2.56;100.00;91503.41;2108507;28;20043;-82
2024/03/11 02:02:29;;;;;;;0.50;0.50;;;;;;;2.56;100.00;91508.66;2107322;28;20031;-82
2024/03/11 02:03:31;;;;;;;0.80;0.50;;;;;;;2.54;100.00;91509.06;2106482;28;20458;-82
2024/03/11 02:04:31;;;;;;;0.40;0.40;;;;;;;2.41;100.00;91511.53;2107253;28;20035;-83
2024/03/11 02:05:34;;;;;;;0.40;0.40;;;;;;;2.53;100.00;91515.47;2112764;28;20059;-82
2024/03/11 02:06:40;;;;;;;0.30;0.30;;;;;;;2.53;100.00;91510.94;2121131;27;20027;-82
2024/03/11 02:07:43;;;;;;;0.95;0.50;;;;;;;2.56;100.00;91508.66;2119311;27;20050;-83
2024/03/11 02:08:45;;;;;;;0.35;0.35;;;;;;;2.45;100.00;91506.22;2117483;27;20435;-83
2024/03/11 02:09:47;;;;;;;0.40;0.40;;;;;;;2.35;100.00;91512.41;2113920;28;20520;-83
2024/03/11 02:10:48;;;;;;;1.40;0.40;;;;;;;2.17;100.00;91510.81;2112889;28;20016;-83
2024/03/11 02:11:52;;;;;;;1.35;0.50;;;;;;;2.22;100.00;91504.34;2116415;28;20027;-83
2024/03/11 02:12:53;;;;;;;0.50;0.50;;;;;;;2.14;100.00;91508.25;2122160;27;20048;-82
2024/03/11 02:13:54;;;;;;;0.35;0.30;;;;;;;2.24;100.00;91505.44;2107481;28;20032;-82
2024/03/11 02:14:56;;;;;;;0.50;0.50;;;;;;;2.33;100.00;91504.91;2113418;28;20028;-83
2024/03/11 02:15:57;;;;;;;0.50;0.50;;;;;;;2.31;100.00;91501.94;2113752;28;20034;-83
2024/03/11 02:16:58;;;;;;;0.40;0.40;;;;;;;2.23;100.00;91501.28;2113818;28;20019;-82
2024/03/11 02:18:00;;;;;;;0.40;0.40;;;;;;;2.16;100.00;91498.81;2112131;28;20023;-80
2024/03/11 02:19:01;;;;;;;0.40;0.40;;;;;;;2.24;100.00;91509.97;2102680;28;20025;-82
2024/03/11 02:20:02;;;;;;;0.50;0.50;;;;;;;2.24;100.00;91500.16;2112948;28;20051;-82
2024/03/11 02:21:03;;;;;;;0.38;0.38;;;;;;;2.26;100.00;91502.41;2113884;28;20031;-82
2024/03/11 02:22:04;;;;;;;0.47;0.43;;;;;;;2.17;100.00;91505.56;2113699;28;20115;-81
2024/03/11 02:23:06;;;;;;;0.50;0.50;;;;;;;2.15;100.00;91501.81;2112971;28;20494;-83
2024/03/11 02:24:08;;;;;;;0.50;0.43;;;;;;;2.32;100.00;91498.13;2113772;28;20024;-81
2024/03/11 02:27:07;;;;;;;;;;;;;;;1.29;100.00;91500.47;2148702;27;20109;-84
2024/03/11 02:28:08;;;;;;;0.50;0.40;;;;;;;1.37;100.00;91507.13;2129928;27;19936;-84
2024/03/11 02:29:09;;;;;;;0.32;0.32;;;;;;;1.47;100.00;91503.59;2113148;28;20032;-80
2024/03/11 02:30:11;;;;;;;0.40;0.40;;;;;;;1.37;100.00;91507.13;2115999;27;20034;-83
2024/03/11 02:31:12;;;;;;;0.50;0.50;;;;;;;1.40;100.00;91498.44;2121581;27;20375;-82
2024/03/11 02:32:13;;;;;;;0.50;0.50;;;;;;;1.32;100.00;91501.56;2105958;28;20101;-84
2024/03/11 02:33:14;;;;;;;0.40;0.40;;;;;;;1.28;100.00;91498.25;2114235;27;20041;-83
2024/03/11 02:34:16;;;;;;;0.40;0.40;;;;;;;1.20;100.00;91494.97;2106564;28;20021;-85
2024/03/11 02:35:17;;;;;;;0.40;0.40;;;;;;;1.19;100.00;91498.75;2104926;28;20023;-86
2024/03/11 02:36:19;;;;;;;0.65;0.40;;;;;;;1.00;100.00;91490.31;2104510;28;20031;-85
2024/03/11 02:37:21;;;;;;;0.40;0.40;;;;;;;1.06;100.00;91495.91;2101576;28;20020;-83
2024/03/11 02:38:22;;;;;;;0.30;0.30;;;;;;;1.03;100.00;91499.31;2099150;28;20024;-85
2024/03/11 02:39:27;;;;;;;0.40;0.40;;;;;;;0.95;100.00;91498.66;2111784;28;20028;-85
2024/03/11 02:40:29;;;;;;;0.40;0.40;;;;;;;1.08;100.00;91498.88;1989748;28;20037;-84
2024/03/11 02:41:32;;;;;;;0.38;0.38;;;;;;;1.20;100.00;91502.84;1997492;27;20141;-83
2024/03/11 02:42:36;;;;;;;0.55;0.40;;;;;;;1.18;100.00;91503.22;2021477;28;20023;-83
2024/03/11 02:43:37;;;;;;;0.40;0.40;;;;;;;1.07;100.00;91507.16;1968543;28;23439;-83
2024/03/11 02:44:38;;;;;;;0.40;0.40;;;;;;;1.03;100.00;91495.94;2061126;28;20028;-85
2024/03/11 02:45:42;;;;;;;0.40;0.40;;;;;;;1.09;100.00;91502.97;2078687;27;22995;-84
2024/03/11 02:46:43;;;;;;;0.45;0.45;;;;;;;1.07;100.00;91499.28;2092144;28;20118;-82
2024/03/11 02:47:44;;;;;;;0.30;0.30;;;;;;;0.91;100.00;91503.19;2089943;28;20659;-83
2024/03/11 02:48:45;;;;;;;0.50;0.50;;;;;;;1.02;100.00;91505.72;2101403;28;20028;-85
2024/03/11 02:49:46;;;;;;;0.32;0.32;;;;;;;1.07;100.00;91507.16;2095532;28;20125;-86
2024/03/11 02:50:47;;;;;;;0.50;0.40;;;;;;;1.04;100.00;91506.06;2084386;28;20029;-85
2024/03/11 02:51:48;;;;;;;1.38;0.50;;;;;;;0.93;100.00;91508.81;2097658;27;20027;-83
2024/03/11 02:52:49;;;;;;;0.65;0.43;;;;;;;0.96;100.00;91510.66;2090993;28;20432;-85
2024/03/11 02:53:51;;;;;;;0.40;0.40;;;;;;;1.00;100.00;91513.97;2092926;28;20028;-86
2024/03/11 02:54:53;;;;;;;0.75;0.60;;;;;;;0.94;100.00;91510.31;2076540;27;20038;-84
2024/03/11 02:55:54;;;;;;;0.60;0.50;;;;;;;1.00;100.00;91513.97;2072100;28;20282;-83
2024/03/11 02:56:55;;;;;;;0.50;0.50;;;;;;;0.98;100.00;91513.66;2092684;28;20063;-84
2024/03/11 02:57:56;;;;;;;1.05;0.50;;;;;;;1.03;100.00;91514.34;1936826;28;20039;-84
2024/03/11 02:58:58;;;;;;;0.50;0.50;;;;;;;0.95;100.00;91519.69;1980197;27;20027;-83
2024/03/11 02:59:59;;;;;;;0.50;0.50;;;;;;;1.11;100.00;91515.75;1969797;28;23264;-84
2024/03/11 03:01:01;;;;;;;0.40;0.40;;;;;;;1.06;100.00;91516.19;1944846;28;20039;-84
2024/03/11 03:02:02;;;;;;;0.30;0.30;;;;;;;0.92;100.00;91517.88;1990858;28;20078;-85
2024/03/11 03:03:05;;;;;;;0.85;0.50;;;;;;;0.92;100.00;91517.88;1970280;28;23386;-84
2024/03/11 03:04:06;;;;;;;0.40;0.40;;;;;;;0.85;100.00;91517.94;1913477;27;21541;-85
2024/03/11 03:05:08;;;;;;;0.40;0.40;;;;;;;0.79;100.00;91516.88;1898181;28;23380;-82
2024/03/11 03:06:09;;;;;;;0.50;0.50;;;;;;;0.84;100.00;91518.34;1918956;27;20035;-81
2024/03/11 03:07:12;;;;;;;0.40;0.40;;;;;;;0.91;100.00;91518.97;1876411;28;20117;-86
2024/03/11 03:08:14;;;;;;;0.50;0.50;;;;;;;1.00;100.00;91513.97;1862299;27;20034;-84
2024/03/11 03:09:16;;;;;;;0.47;0.47;;;;;;;0.91;100.00;91523.50;1821876;28;22272;-83
2024/03/11 03:10:17;;;;;;;0.43;0.43;;;;;;;0.95;100.00;91521.56;1806593;28;22977;-84
2024/03/11 03:11:18;;;;;;;0.52;0.40;;;;;;;0.89;100.00;91523.91;1794280;28;20967;-83
2024/03/11 03:12:20;;;;;;;0.40;0.40;;;;;;;0.84;100.00;91526.22;1777468;28;21029;-82
2024/03/11 03:13:21;;;;;;;0.35;0.32;;;;;;;0.89;100.00;91528.41;1769539;28;20027;-82
2024/03/11 03:14:22;;;;;;;1.75;0.57;;;;;;;0.88;100.00;91524.28;1780990;27;20196;-81
2024/03/11 03:15:23;;;;;;;1.40;0.60;;;;;;;0.89;100.00;91523.91;1784424;27;23067;-82
2024/03/11 03:16:24;;;;;;;0.40;0.40;;;;;;;0.92;100.00;91532.88;1788399;28;23214;-82
2024/03/11 03:17:25;;;;;;;0.43;0.43;;;;;;;1.05;100.00;91533.84;1766342;28;20042;-82
2024/03/11 03:18:26;;;;;;;0.50;0.50;;;;;;;1.04;100.00;91531.63;1802779;28;20146;-83
2024/03/11 03:19:27;;;;;;;0.40;0.40;;;;;;;1.02;100.00;91533.91;1822181;28;20369;-81
2024/03/11 03:20:28;;;;;;;0.40;0.40;;;;;;;1.02;100.00;91528.66;1838061;28;22407;-83
2024/03/11 03:21:29;;;;;;;0.40;0.40;;;;;;;0.88;100.00;91525.03;1818389;28;20209;-81
2024/03/11 03:22:30;;;;;;;0.95;0.40;;;;;;;1.04;100.00;91531.63;1846266;27;21009;-84
2024/03/11 03:23:32;;;;;;;1.95;0.40;;;;;;;0.96;100.00;91536.94;1875990;28;21197;-83
2024/03/11 03:24:33;;;;;;;0.50;0.50;;;;;;;0.99;100.00;91538.81;1946359;28;21561;-85
2024/03/11 03:25:34;;;;;;;0.40;0.40;;;;;;;0.98;100.00;91532.06;2020216;27;20028;-83
2024/03/11 03:26:35;;;;;;;0.40;0.40;;;;;;;1.09;100.00;91531.19;2066690;27;20031;-84
2024/03/11 03:27:36;;;;;;;0.40;0.40;;;;;;;1.10;100.00;91528.16;2093585;28;20034;-85
2024/03/11 03:28:37;;;;;;;0.85;0.50;;;;;;;1.08;100.00;91532.31;2089508;28;20031;-85
2024/03/11 03:29:40;;;;;;;0.50;0.50;;;;;;;0.98;100.00;91533.94;2091466;28;20373;-83
2024/03/11 03:30:42;;;;;;;0.40;0.40;;;;;;;1.12;100.00;91531.13;2092428;28;20064;-85
2024/03/11 03:31:43;;;;;;;0.52;0.38;;;;;;;1.10;100.00;91530.81;2061777;28;20032;-83
2024/03/11 03:32:44;;;;;;;0.60;0.60;;;;;;;1.15;100.00;91524.34;2083330;28;20041;-84
2024/03/11 03:33:45;;;;;;;0.50;0.50;;;;;;;1.07;100.00;91539.47;2053698;27;20123;-83
2024/03/11 03:34:46;;;;;;;0.38;0.38;;;;;;;1.18;100.00;91536.69;2030943;28;22505;-84
2024/03/11 03:35:47;;;;;;;0.40;0.40;;;;;;;1.19;100.00;91533.69;2035425;28;20032;-84
2024/03/11 03:36:49;;;;;;;0.40;0.40;;;;;;;1.19;100.00;91532.94;2046763;28;20162;-85
2024/03/11 03:37:54;;;;;;;0.45;0.45;;;;;;;1.22;100.00;91530.25;2059977;27;20037;-83
2024/03/11 03:38:56;;;;;;;0.50;0.50;;;;;;;1.21;100.00;91536.66;2046890;28;20034;-83
2024/03/11 03:39:57;;;;;;;0.30;0.30;;;;;;;1.23;100.00;91538.91;2062118;27;22262;-82
2024/03/11 03:40:58;;;;;;;0.40;0.40;;;;;;;1.26;100.00;91544.09;2064732;28;20043;-84
2024/03/11 03:42:00;;;;;;;0.40;0.40;;;;;;;1.30;100.00;91543.31;2071255;28;20027;-83
2024/03/11 03:43:03;;;;;;;0.30;0.30;;;;;;;1.26;100.00;91533.59;2093401;28;20106;-84
2024/03/11 03:44:05;;;;;;;0.40;0.40;;;;;;;1.38;100.00;91539.47;2109309;27;20042;-84
2024/03/11 03:45:09;;;;;;;1.38;0.30;;;;;;;1.28;100.00;91538.47;2115227;28;20020;-83
2024/03/11 03:46:10;;;;;;;0.68;0.32;;;;;;;1.34;100.00;91542.13;2109597;28;20019;-84
2024/03/11 03:47:11;;;;;;;0.55;0.55;;;;;;;1.16;100.00;91545.00;2106893;28;20028;-87
2024/03/11 03:48:12;;;;;;;0.98;0.47;;;;;;;1.27;100.00;91550.13;2098799;28;20466;-84
2024/03/11 03:49:13;;;;;;;0.55;0.40;;;;;;;1.23;100.00;91542.28;2098649;28;20035;-84
2024/03/11 03:50:14;;;;;;;0.80;0.40;;;;;;;1.10;100.00;91545.81;2107147;28;20087;-84
2024/03/11 03:51:18;;;;;;;0.50;0.50;;;;;;;1.13;100.00;91543.16;2115388;28;20061;-83
2024/03/11 03:52:19;;;;;;;1.20;0.40;;;;;;;1.12;100.00;91538.28;2107330;28;20047;-85
2024/03/11 03:53:20;;;;;;;0.30;0.30;;;;;;;1.12;100.00;91540.91;2098707;28;20088;-83
2024/03/11 03:54:21;;;;;;;0.30;0.30;;;;;;;1.13;100.00;91540.53;2106740;28;20091;-84
2024/03/11 03:55:23;;;;;;;0.45;0.40;;;;;;;1.20;100.00;91540.44;2106788;28;20498;-84
2024/03/11 03:56:27;;;;;;;0.45;0.40;;;;;;;1.13;100.00;91545.03;2098630;28;20023;-83
2024/03/11 03:57:28;;;;;;;0.57;0.57;;;;;;;1.10;100.00;91541.31;2099358;28;20024;-84
2024/03/11 03:58:29;;;;;;;0.32;0.32;;;;;;;1.18;100.00;91542.72;2106925;28;20024;-84
2024/03/11 03:59:33;;;;;;;0.50;0.40;;;;;;;1.15;100.00;91548.78;2098348;28;20432;-83
2024/03/11 04:00:35;;;;;;;0.60;0.43;;;;;;;1.20;100.00;91537.06;2107601;28;20098;-85
2024/03/11 04:01:36;;;;;;;0.40;0.40;;;;;;;1.17;100.00;91546.47;2106716;28;20107;-85
2024/03/11 04:02:36;;;;;;;0.30;0.30;;;;;;;1.20;100.00;91544.97;2098502;28;20023;-85
2024/03/11 04:03:38;;;;;;;0.55;0.40;;;;;;;1.26;100.00;91543.38;2101585;28;20027;-86
2024/03/11 04:04:40;;;;;;;0.88;0.40;;;;;;;1.12;100.00;91539.03;2106856;28;20680;-85
2024/03/11 04:05:43;;;;;;;0.40;0.40;;;;;;;1.12;100.00;91543.56;2106992;28;20020;-83
2024/03/11 04:06:45;;;;;;;0.30;0.30;;;;;;;1.19;100.00;91541.59;2111525;28;20036;-83
2024/03/11 04:07:46;;;;;;;0.30;0.30;;;;;;;1.21;100.00;91551.72;2117458;27;20020;-85
2024/03/11 04:08:47;;;;;;;0.85;0.47;;;;;;;1.27;100.00;91550.13;2122605;27;20023;-86
2024/03/11 04:09:48;;;;;;;0.55;0.40;;;;;;;1.17;100.00;91548.38;2103620;28;20020;-83
2024/03/11 04:10:49;;;;;;;0.30;0.30;;;;;;;1.26;100.00;91543.38;2095973;28;20078;-85
2024/03/11 04:11:50;;;;;;;0.32;0.32;;;;;;;1.16;100.00;91547.63;2099475;28;20020;-86
2024/03/11 04:12:55;;;;;;;0.77;0.40;;;;;;;1.17;100.00;91551.75;2099588;28;20032;-84
2024/03/11 04:13:57;;;;;;;0.32;0.32;;;;;;;1.17;100.00;91558.91;2101502;28;20477;-86
2024/03/11 04:14:58;;;;;;;0.63;0.50;;;;;;;1.18;100.00;91553.22;2098213;28;20174;-85
2024/03/11 04:16:00;;;;;;;1.55;0.50;;;;;;;1.02;100.00;91560.97;2098869;28;20048;-83
2024/03/11 04:17:01;;;;;;;0.38;0.38;;;;;;;1.09;100.00;91555.59;2098542;28;20389;-85
2024/03/11 04:18:05;;;;;;;0.45;0.45;;;;;;;1.12;100.00;91557.44;2106919;28;20115;-87
2024/03/11 04:19:06;;;;;;;0.50;0.40;;;;;;;1.12;100.00;91557.44;2106688;28;20024;-85
2024/03/11 04:20:11;;;;;;;0.95;0.47;;;;;;;1.03;100.00;91562.44;2099720;27;20024;-84
2024/03/11 04:21:12;;;;;;;0.57;0.38;;;;;;;1.28;100.00;91562.16;2106505;28;20024;-85
2024/03/11 04:22:14;;;;;;;0.40;0.40;;;;;;;1.26;100.00;91565.16;2106566;28;20023;-84
2024/03/11 04:23:15;;;;;;;0.32;0.32;;;;;;;1.34;100.00;91576.34;2090418;28;20028;-85
2024/03/11 04:24:20;;;;;;;0.30;0.30;;;;;;;1.23;100.00;91575.75;2098493;28;20055;-86
2024/03/11 04:25:28;;;;;;;0.30;0.30;;;;;;;1.11;100.00;91573.63;2098799;28;20792;-85
2024/03/11 04:26:29;;;;;;;0.40;0.30;;;;;;;1.03;100.00;91583.50;2098693;28;20099;-84
2024/03/11 04:27:34;;;;;;;1.55;0.50;;;;;;;1.08;100.00;91583.06;2098840;28;20036;-85
2024/03/11 04:28:36;;;;;;;0.50;0.32;;;;;;;1.15;100.00;91588.25;2106896;28;20106;-83
2024/03/11 04:29:37;;;;;;;0.40;0.40;;;;;;;1.24;100.00;91585.13;2106693;28;20122;-85
2024/03/11 04:30:41;;;;;;;0.40;0.40;;;;;;;1.19;100.00;91588.94;2098602;28;20115;-86
2024/03/11 04:31:43;;;;;;;0.40;0.40;;;;;;;1.19;100.00;91596.84;2091074;28;20051;-86
2024/03/11 04:32:52;;;;;;;0.40;0.40;;;;;;;1.20;100.00;91602.84;2098723;28;20612;-86
2024/03/11 04:33:55;;;;;;;0.73;0.40;;;;;;;1.19;100.00;91596.09;2099093;28;20016;-83
2024/03/11 04:34:56;;;;;;;0.75;0.40;;;;;;;1.31;100.00;91600.09;2090626;28;20035;-83
2024/03/11 04:35:57;;;;;;;1.02;1.02;;;;;;;1.30;100.00;91595.97;2090185;28;20032;-85
2024/03/11 04:36:58;;;;;;;0.70;0.70;;;;;;;1.37;100.00;91599.28;2114978;28;20034;-85
2024/03/11 04:38:03;;;;;;;1.20;1.10;;;;;;;1.45;100.00;91592.03;2112653;28;20111;-84
2024/03/11 04:39:05;;;;;;;1.33;1.25;;;;;;;1.36;100.00;91603.03;2095687;28;20031;-85
2024/03/11 04:40:07;;;;;;;0.85;0.85;;;;;;;1.28;100.00;91603.53;2098101;28;20565;-83
2024/03/11 04:41:12;;;;;;;0.70;0.70;;;;;;;1.29;100.00;91602.38;2099056;28;20048;-83
2024/03/11 04:42:13;;;;;;;0.90;0.90;;;;;;;1.33;100.00;91600.44;2094704;28;20482;-84
2024/03/11 04:43:14;;;;;;;0.93;0.90;;;;;;;1.17;100.00;91606.25;2104542;28;20019;-86
2024/03/11 04:44:16;;;;;;;0.80;0.80;;;;;;;1.21;100.00;91599.81;2130517;27;20035;-84
2024/03/11 04:45:17;;;;;;;1.02;0.88;;;;;;;1.40;100.00;91602.97;2106157;28;20020;-84
2024/03/11 04:46:18;;;;;;;0.80;0.80;;;;;;;1.44;100.00;91604.44;2093780;28;20170;-85
2024/03/11 04:47:22;;;;;;;0.70;0.70;;;;;;;1.38;100.00;91597.38;2098043;28;20529;-86
2024/03/11 04:48:23;;;;;;;0.70;0.70;;;;;;;1.23;100.00;91602.81;2093969;28;20048;-85
2024/03/11 04:49:24;;;;;;;0.98;0.70;;;;;;;1.21;100.00;91604.34;2106280;28;20032;-86
2024/03/11 04:50:27;;;;;;;0.88;0.70;;;;;;;1.21;100.00;91604.34;2105663;28;20069;-85
2024/03/11 04:51:28;;;;;;;0.70;0.70;;;;;;;1.30;100.00;91601.22;2090396;28;20025;-85
2024/03/11 04:52:29;;;;;;;0.70;0.70;;;;;;;1.35;100.00;91614.69;2106347;28;20027;-84
2024/03/11 04:53:30;;;;;;;0.93;0.80;;;;;;;1.29;100.00;91608.38;2106336;28;20028;-84